sensor_id;sensor_type;location;lat;lon;timestamp;temperature;humidity
16172;DHT22;8192;53.596;10.166;2023-10-09T00:01:26;10.20;99.90
16172;DHT22;8192;53.596;10.166;2023-10-09T00:03:53;10.20;99.90
16172;DHT22;8192;53.596;10.166;2023-10-09T00:06:22;10.20;99.90
16172;DHT22;8192;53.596;10.166;2023-10-09T00:08:57;10.20;99.90
16172;DHT22;8192;53.596;10.166;2023-10-09T00:11:38;10.20;99.90
16172;DHT22;8192;53.596;10.166;2023-10-09T00:14:10;10.10;99.90
16172;DHT22;8192;53.596;10.166;2023-10-09T00:16:37;10.10;99.90
16172;DHT22;8192;53.596;10.166;2023-10-09T00:19:12;10.10;99.90
16172;DHT22;8192;53.596;10.166;2023-10-09T00:21:46;10.00;99.90
16172;DHT22;8192;53.596;10.166;2023-10-09T00:24:14;10.00;99.90
16172;DHT22;8192;53.596;10.166;2023-10-09T00:26:50;10.00;99.90
16172;DHT22;8192;53.596;10.166;2023-10-09T00:29:21;10.10;99.90
16172;DHT22;8192;53.596;10.166;2023-10-09T00:31:51;10.00;99.90
16172;DHT22;8192;53.596;10.166;2023-10-09T00:34:24;10.00;99.90
16172;DHT22;8192;53.596;10.166;2023-10-09T00:36:52;9.90;99.90
16172;DHT22;8192;53.596;10.166;2023-10-09T00:39:20;9.90;99.90
16172;DHT22;8192;53.596;10.166;2023-10-09T00:42:09;9.90;99.90
16172;DHT22;8192;53.596;10.166;2023-10-09T00:44:38;9.90;99.90
16172;DHT22;8192;53.596;10.166;2023-10-09T00:47:08;9.80;99.90
16172;DHT22;8192;53.596;10.166;2023-10-09T00:49:57;9.90;99.90
16172;DHT22;8192;53.596;10.166;2023-10-09T00:52:32;9.90;99.90
16172;DHT22;8192;53.596;10.166;2023-10-09T00:55:04;9.90;99.90
16172;DHT22;8192;53.596;10.166;2023-10-09T00:57:41;9.90;99.90
16172;DHT22;8192;53.596;10.166;2023-10-09T01:00:16;9.80;99.90
16172;DHT22;8192;53.596;10.166;2023-10-09T01:02:57;9.80;99.90
16172;DHT22;8192;53.596;10.166;2023-10-09T01:05:36;9.80;99.90
16172;DHT22;8192;53.596;10.166;2023-10-09T01:08:04;9.80;99.90
16172;DHT22;8192;53.596;10.166;2023-10-09T01:10:45;9.70;99.90
16172;DHT22;8192;53.596;10.166;2023-10-09T01:13:20;9.70;99.90
16172;DHT22;8192;53.596;10.166;2023-10-09T01:15:53;9.70;99.90
16172;DHT22;8192;53.596;10.166;2023-10-09T01:18:24;9.70;99.90
16172;DHT22;8192;53.596;10.166;2023-10-09T01:21:01;9.70;99.90
16172;DHT22;8192;53.596;10.166;2023-10-09T01:23:30;9.70;99.90
16172;DHT22;8192;53.596;10.166;2023-10-09T01:25:57;9.70;99.90
16172;DHT22;8192;53.596;10.166;2023-10-09T01:28:24;9.70;99.90
16172;DHT22;8192;53.596;10.166;2023-10-09T01:30:54;9.60;99.90
16172;DHT22;8192;53.596;10.166;2023-10-09T01:33:21;9.60;99.90
16172;DHT22;8192;53.596;10.166;2023-10-09T01:35:49;9.60;99.90
16172;DHT22;8192;53.596;10.166;2023-10-09T01:38:21;9.60;99.90
16172;DHT22;8192;53.596;10.166;2023-10-09T01:40:59;9.60;99.90
16172;DHT22;8192;53.596;10.166;2023-10-09T01:43:33;9.60;99.90
16172;DHT22;8192;53.596;10.166;2023-10-09T01:46:00;9.50;99.90
16172;DHT22;8192;53.596;10.166;2023-10-09T01:48:26;9.60;99.90
16172;DHT22;8192;53.596;10.166;2023-10-09T01:50:58;9.60;99.90
16172;DHT22;8192;53.596;10.166;2023-10-09T01:53:26;9.60;99.90
16172;DHT22;8192;53.596;10.166;2023-10-09T01:55:56;9.60;99.90
16172;DHT22;8192;53.596;10.166;2023-10-09T01:58:26;9.60;99.90
16172;DHT22;8192;53.596;10.166;2023-10-09T02:00:57;9.60;99.90
16172;DHT22;8192;53.596;10.166;2023-10-09T02:03:27;9.60;99.90
16172;DHT22;8192;53.596;10.166;2023-10-09T02:05:55;9.60;99.90
16172;DHT22;8192;53.596;10.166;2023-10-09T02:08:25;9.60;99.90
16172;DHT22;8192;53.596;10.166;2023-10-09T02:11:01;9.60;99.90
16172;DHT22;8192;53.596;10.166;2023-10-09T02:13:30;9.60;99.90
16172;DHT22;8192;53.596;10.166;2023-10-09T02:16:00;9.60;99.90
16172;DHT22;8192;53.596;10.166;2023-10-09T02:18:39;9.50;99.90
16172;DHT22;8192;53.596;10.166;2023-10-09T02:21:21;9.50;99.90
16172;DHT22;8192;53.596;10.166;2023-10-09T02:23:58;9.50;99.90
16172;DHT22;8192;53.596;10.166;2023-10-09T02:26:30;9.60;99.90
16172;DHT22;8192;53.596;10.166;2023-10-09T02:29:22;9.60;99.90
16172;DHT22;8192;53.596;10.166;2023-10-09T02:31:50;9.60;99.90
16172;DHT22;8192;53.596;10.166;2023-10-09T02:34:18;9.60;99.90
16172;DHT22;8192;53.596;10.166;2023-10-09T02:36:48;9.60;99.90
16172;DHT22;8192;53.596;10.166;2023-10-09T02:39:23;9.60;99.90
16172;DHT22;8192;53.596;10.166;2023-10-09T02:41:52;9.60;99.90
16172;DHT22;8192;53.596;10.166;2023-10-09T02:44:25;9.60;99.90
16172;DHT22;8192;53.596;10.166;2023-10-09T02:46:53;9.60;99.90
16172;DHT22;8192;53.596;10.166;2023-10-09T02:49:23;9.50;99.90
16172;DHT22;8192;53.596;10.166;2023-10-09T02:51:51;9.50;99.90
16172;DHT22;8192;53.596;10.166;2023-10-09T02:54:19;9.60;99.90
16172;DHT22;8192;53.596;10.166;2023-10-09T02:57:06;9.60;99.90
16172;DHT22;8192;53.596;10.166;2023-10-09T02:59:35;9.50;99.90
16172;DHT22;8192;53.596;10.166;2023-10-09T03:02:10;9.50;99.90
16172;DHT22;8192;53.596;10.166;2023-10-09T03:04:37;9.50;99.90
16172;DHT22;8192;53.596;10.166;2023-10-09T03:07:04;9.50;99.90
16172;DHT22;8192;53.596;10.166;2023-10-09T03:09:32;9.50;99.90
16172;DHT22;8192;53.596;10.166;2023-10-09T03:12:02;9.50;99.90
16172;DHT22;8192;53.596;10.166;2023-10-09T03:14:30;9.40;99.90
16172;DHT22;8192;53.596;10.166;2023-10-09T03:16:59;9.40;99.90
16172;DHT22;8192;53.596;10.166;2023-10-09T03:19:26;9.30;99.90
16172;DHT22;8192;53.596;10.166;2023-10-09T03:21:57;9.30;99.90
16172;DHT22;8192;53.596;10.166;2023-10-09T03:24:24;9.40;99.90
16172;DHT22;8192;53.596;10.166;2023-10-09T03:26:52;9.30;99.90
16172;DHT22;8192;53.596;10.166;2023-10-09T03:29:21;9.30;99.90
16172;DHT22;8192;53.596;10.166;2023-10-09T03:31:48;9.30;99.90
16172;DHT22;8192;53.596;10.166;2023-10-09T03:34:17;9.30;99.90
16172;DHT22;8192;53.596;10.166;2023-10-09T03:36:45;9.30;99.90
16172;DHT22;8192;53.596;10.166;2023-10-09T03:39:13;9.20;99.90
16172;DHT22;8192;53.596;10.166;2023-10-09T03:41:50;9.30;99.90
16172;DHT22;8192;53.596;10.166;2023-10-09T03:44:17;9.20;99.90
16172;DHT22;8192;53.596;10.166;2023-10-09T03:46:45;9.20;99.90
16172;DHT22;8192;53.596;10.166;2023-10-09T03:49:12;9.20;99.90
16172;DHT22;8192;53.596;10.166;2023-10-09T03:51:43;9.30;99.90
16172;DHT22;8192;53.596;10.166;2023-10-09T03:54:10;9.20;99.90
16172;DHT22;8192;53.596;10.166;2023-10-09T03:56:39;9.30;99.90
16172;DHT22;8192;53.596;10.166;2023-10-09T03:59:06;9.20;99.90
16172;DHT22;8192;53.596;10.166;2023-10-09T04:01:36;9.20;99.90
16172;DHT22;8192;53.596;10.166;2023-10-09T04:04:05;9.20;99.90
16172;DHT22;8192;53.596;10.166;2023-10-09T04:06:40;9.10;99.90
16172;DHT22;8192;53.596;10.166;2023-10-09T04:12:30;9.20;99.90
16172;DHT22;8192;53.596;10.166;2023-10-09T04:14:59;9.20;99.90
16172;DHT22;8192;53.596;10.166;2023-10-09T04:17:30;9.30;99.90
16172;DHT22;8192;53.596;10.166;2023-10-09T04:20:00;9.30;99.90
16172;DHT22;8192;53.596;10.166;2023-10-09T04:22:56;9.30;99.90
16172;DHT22;8192;53.596;10.166;2023-10-09T04:25:31;9.30;99.90
16172;DHT22;8192;53.596;10.166;2023-10-09T04:28:10;9.30;99.90
16172;DHT22;8192;53.596;10.166;2023-10-09T04:30:44;9.30;99.90
16172;DHT22;8192;53.596;10.166;2023-10-09T04:33:18;9.30;99.90
16172;DHT22;8192;53.596;10.166;2023-10-09T04:36:01;9.30;99.90
16172;DHT22;8192;53.596;10.166;2023-10-09T04:38:48;9.20;99.90
16172;DHT22;8192;53.596;10.166;2023-10-09T04:41:57;9.20;99.90
16172;DHT22;8192;53.596;10.166;2023-10-09T04:44:45;9.30;99.90
16172;DHT22;8192;53.596;10.166;2023-10-09T04:47:45;9.20;99.90
16172;DHT22;8192;53.596;10.166;2023-10-09T04:50:32;9.20;99.90
16172;DHT22;8192;53.596;10.166;2023-10-09T04:53:37;9.20;99.90
16172;DHT22;8192;53.596;10.166;2023-10-09T04:56:09;9.20;99.90
16172;DHT22;8192;53.596;10.166;2023-10-09T04:58:43;9.20;99.90
16172;DHT22;8192;53.596;10.166;2023-10-09T05:01:11;9.20;99.90
16172;DHT22;8192;53.596;10.166;2023-10-09T05:03:44;9.20;99.90
16172;DHT22;8192;53.596;10.166;2023-10-09T05:06:18;9.20;99.90
16172;DHT22;8192;53.596;10.166;2023-10-09T05:08:58;9.20;99.90
16172;DHT22;8192;53.596;10.166;2023-10-09T05:11:35;9.20;99.90
16172;DHT22;8192;53.596;10.166;2023-10-09T05:14:20;9.20;99.90
16172;DHT22;8192;53.596;10.166;2023-10-09T05:17:06;9.20;99.90
16172;DHT22;8192;53.596;10.166;2023-10-09T05:19:42;9.20;99.90
16172;DHT22;8192;53.596;10.166;2023-10-09T05:22:09;9.20;99.90
16172;DHT22;8192;53.596;10.166;2023-10-09T05:24:43;9.20;99.90
16172;DHT22;8192;53.596;10.166;2023-10-09T05:27:12;9.20;99.90
16172;DHT22;8192;53.596;10.166;2023-10-09T05:29:46;9.20;99.90
16172;DHT22;8192;53.596;10.166;2023-10-09T05:32:25;9.20;99.90
16172;DHT22;8192;53.596;10.166;2023-10-09T05:34:55;9.20;99.90
16172;DHT22;8192;53.596;10.166;2023-10-09T05:37:41;9.10;99.90
16172;DHT22;8192;53.596;10.166;2023-10-09T05:40:12;9.20;99.90
16172;DHT22;8192;53.596;10.166;2023-10-09T05:42:48;9.20;99.90
16172;DHT22;8192;53.596;10.166;2023-10-09T05:45:27;9.20;99.90
16172;DHT22;8192;53.596;10.166;2023-10-09T05:48:11;9.20;99.90
16172;DHT22;8192;53.596;10.166;2023-10-09T05:50:55;9.20;99.90
16172;DHT22;8192;53.596;10.166;2023-10-09T05:53:45;9.20;99.90
16172;DHT22;8192;53.596;10.166;2023-10-09T05:56:29;9.30;99.90
16172;DHT22;8192;53.596;10.166;2023-10-09T05:59:14;9.40;99.90
16172;DHT22;8192;53.596;10.166;2023-10-09T06:02:08;9.40;99.90
16172;DHT22;8192;53.596;10.166;2023-10-09T06:05:04;9.30;99.90
16172;DHT22;8192;53.596;10.166;2023-10-09T06:07:52;9.30;99.90
16172;DHT22;8192;53.596;10.166;2023-10-09T06:10:33;9.20;99.90
16172;DHT22;8192;53.596;10.166;2023-10-09T06:13:06;9.10;99.90
16172;DHT22;8192;53.596;10.166;2023-10-09T06:15:52;9.10;99.90
16172;DHT22;8192;53.596;10.166;2023-10-09T06:18:36;9.10;99.90
16172;DHT22;8192;53.596;10.166;2023-10-09T06:21:07;9.20;99.90
16172;DHT22;8192;53.596;10.166;2023-10-09T06:24:06;9.20;99.90
16172;DHT22;8192;53.596;10.166;2023-10-09T06:26:41;9.30;99.90
16172;DHT22;8192;53.596;10.166;2023-10-09T06:29:17;9.30;99.90
16172;DHT22;8192;53.596;10.166;2023-10-09T06:31:59;9.30;99.90
16172;DHT22;8192;53.596;10.166;2023-10-09T06:34:45;9.30;99.90
16172;DHT22;8192;53.596;10.166;2023-10-09T06:37:12;9.30;99.90
16172;DHT22;8192;53.596;10.166;2023-10-09T06:40:00;9.20;99.90
16172;DHT22;8192;53.596;10.166;2023-10-09T06:42:50;9.10;99.90
16172;DHT22;8192;53.596;10.166;2023-10-09T06:45:20;9.10;99.90
16172;DHT22;8192;53.596;10.166;2023-10-09T06:47:53;9.10;99.90
16172;DHT22;8192;53.596;10.166;2023-10-09T06:50:22;9.10;99.90
16172;DHT22;8192;53.596;10.166;2023-10-09T06:53:12;9.10;99.90
16172;DHT22;8192;53.596;10.166;2023-10-09T06:55:45;9.10;99.90
16172;DHT22;8192;53.596;10.166;2023-10-09T06:58:15;9.10;99.90
16172;DHT22;8192;53.596;10.166;2023-10-09T07:00:50;9.20;99.90
16172;DHT22;8192;53.596;10.166;2023-10-09T07:03:37;9.30;99.90
16172;DHT22;8192;53.596;10.166;2023-10-09T07:06:20;9.20;99.90
16172;DHT22;8192;53.596;10.166;2023-10-09T07:09:01;9.30;99.90
16172;DHT22;8192;53.596;10.166;2023-10-09T07:11:46;9.30;99.90
16172;DHT22;8192;53.596;10.166;2023-10-09T07:14:25;9.30;99.90
16172;DHT22;8192;53.596;10.166;2023-10-09T07:17:10;9.40;99.90
16172;DHT22;8192;53.596;10.166;2023-10-09T07:19:48;9.30;99.90
16172;DHT22;8192;53.596;10.166;2023-10-09T07:22:38;9.30;99.90
16172;DHT22;8192;53.596;10.166;2023-10-09T07:25:22;9.30;99.90
16172;DHT22;8192;53.596;10.166;2023-10-09T07:28:10;9.40;99.90
16172;DHT22;8192;53.596;10.166;2023-10-09T07:31:02;9.60;99.90
16172;DHT22;8192;53.596;10.166;2023-10-09T07:33:30;9.60;99.90
16172;DHT22;8192;53.596;10.166;2023-10-09T07:36:32;9.60;99.90
16172;DHT22;8192;53.596;10.166;2023-10-09T07:39:04;9.70;99.90
16172;DHT22;8192;53.596;10.166;2023-10-09T07:41:39;9.80;99.90
16172;DHT22;8192;53.596;10.166;2023-10-09T07:44:10;9.80;99.90
16172;DHT22;8192;53.596;10.166;2023-10-09T07:47:03;9.90;99.90
16172;DHT22;8192;53.596;10.166;2023-10-09T07:49:47;9.90;99.90
16172;DHT22;8192;53.596;10.166;2023-10-09T07:52:26;9.80;99.90
16172;DHT22;8192;53.596;10.166;2023-10-09T07:54:53;9.80;99.90
16172;DHT22;8192;53.596;10.166;2023-10-09T07:57:27;9.90;99.90
16172;DHT22;8192;53.596;10.166;2023-10-09T08:00:04;9.80;99.90
16172;DHT22;8192;53.596;10.166;2023-10-09T08:03:00;9.80;99.90
16172;DHT22;8192;53.596;10.166;2023-10-09T08:05:27;9.90;99.90
16172;DHT22;8192;53.596;10.166;2023-10-09T08:08:01;9.80;99.90
16172;DHT22;8192;53.596;10.166;2023-10-09T08:11:07;9.90;99.90
16172;DHT22;8192;53.596;10.166;2023-10-09T08:13:51;9.80;99.90
16172;DHT22;8192;53.596;10.166;2023-10-09T08:16:26;9.80;99.90
16172;DHT22;8192;53.596;10.166;2023-10-09T08:19:02;9.80;99.90
16172;DHT22;8192;53.596;10.166;2023-10-09T08:21:46;9.90;99.90
16172;DHT22;8192;53.596;10.166;2023-10-09T08:24:34;10.10;99.90
16172;DHT22;8192;53.596;10.166;2023-10-09T08:27:08;10.20;99.90
16172;DHT22;8192;53.596;10.166;2023-10-09T08:29:52;10.10;99.90
16172;DHT22;8192;53.596;10.166;2023-10-09T08:32:40;10.10;99.90
16172;DHT22;8192;53.596;10.166;2023-10-09T08:35:08;10.10;99.90
16172;DHT22;8192;53.596;10.166;2023-10-09T08:37:55;10.00;99.90
16172;DHT22;8192;53.596;10.166;2023-10-09T08:40:30;10.00;99.90
16172;DHT22;8192;53.596;10.166;2023-10-09T08:43:02;9.90;99.90
16172;DHT22;8192;53.596;10.166;2023-10-09T08:45:37;10.00;99.90
16172;DHT22;8192;53.596;10.166;2023-10-09T08:48:05;10.00;99.90
16172;DHT22;8192;53.596;10.166;2023-10-09T08:50:32;10.20;99.90
16172;DHT22;8192;53.596;10.166;2023-10-09T08:53:00;10.10;99.90
16172;DHT22;8192;53.596;10.166;2023-10-09T08:55:30;10.10;99.90
16172;DHT22;8192;53.596;10.166;2023-10-09T08:57:57;10.20;99.90
16172;DHT22;8192;53.596;10.166;2023-10-09T09:00:24;10.20;99.90
16172;DHT22;8192;53.596;10.166;2023-10-09T09:02:53;10.20;99.90
16172;DHT22;8192;53.596;10.166;2023-10-09T09:05:20;10.20;99.90
16172;DHT22;8192;53.596;10.166;2023-10-09T09:07:47;10.20;99.90
16172;DHT22;8192;53.596;10.166;2023-10-09T09:10:14;10.20;99.90
16172;DHT22;8192;53.596;10.166;2023-10-09T09:12:48;10.30;99.90
16172;DHT22;8192;53.596;10.166;2023-10-09T09:15:19;10.30;99.90
16172;DHT22;8192;53.596;10.166;2023-10-09T09:17:48;10.30;99.90
16172;DHT22;8192;53.596;10.166;2023-10-09T09:20:24;10.40;99.90
16172;DHT22;8192;53.596;10.166;2023-10-09T09:22:57;10.30;99.90
16172;DHT22;8192;53.596;10.166;2023-10-09T09:25:27;10.30;99.90
16172;DHT22;8192;53.596;10.166;2023-10-09T09:28:07;10.30;99.90
16172;DHT22;8192;53.596;10.166;2023-10-09T09:30:38;10.40;99.90
16172;DHT22;8192;53.596;10.166;2023-10-09T09:33:20;10.50;99.90
16172;DHT22;8192;53.596;10.166;2023-10-09T09:35:59;10.50;99.90
16172;DHT22;8192;53.596;10.166;2023-10-09T09:38:28;10.50;99.90
16172;DHT22;8192;53.596;10.166;2023-10-09T09:41:01;10.50;99.90
16172;DHT22;8192;53.596;10.166;2023-10-09T09:43:31;10.60;99.90
16172;DHT22;8192;53.596;10.166;2023-10-09T09:46:01;10.50;99.90
16172;DHT22;8192;53.596;10.166;2023-10-09T09:48:37;10.50;99.90
16172;DHT22;8192;53.596;10.166;2023-10-09T09:51:05;10.60;99.90
16172;DHT22;8192;53.596;10.166;2023-10-09T09:53:34;10.70;99.90
16172;DHT22;8192;53.596;10.166;2023-10-09T09:56:03;10.80;99.90
16172;DHT22;8192;53.596;10.166;2023-10-09T09:58:34;10.90;99.90
16172;DHT22;8192;53.596;10.166;2023-10-09T10:01:09;10.90;99.90
16172;DHT22;8192;53.596;10.166;2023-10-09T10:03:45;10.80;99.90
16172;DHT22;8192;53.596;10.166;2023-10-09T10:06:15;10.80;99.90
16172;DHT22;8192;53.596;10.166;2023-10-09T10:08:48;10.80;99.90
16172;DHT22;8192;53.596;10.166;2023-10-09T10:11:41;10.90;99.90
16172;DHT22;8192;53.596;10.166;2023-10-09T10:14:11;11.10;99.90
16172;DHT22;8192;53.596;10.166;2023-10-09T10:17:01;11.00;99.90
16172;DHT22;8192;53.596;10.166;2023-10-09T10:20:03;11.10;99.90
16172;DHT22;8192;53.596;10.166;2023-10-09T10:22:48;11.10;99.90
16172;DHT22;8192;53.596;10.166;2023-10-09T10:25:34;11.10;99.90
16172;DHT22;8192;53.596;10.166;2023-10-09T10:28:17;11.10;99.90
16172;DHT22;8192;53.596;10.166;2023-10-09T10:30:55;11.10;99.90
16172;DHT22;8192;53.596;10.166;2023-10-09T10:33:26;11.30;99.90
16172;DHT22;8192;53.596;10.166;2023-10-09T10:35:53;11.40;99.90
16172;DHT22;8192;53.596;10.166;2023-10-09T10:38:28;11.60;99.90
16172;DHT22;8192;53.596;10.166;2023-10-09T10:41:13;11.60;99.90
16172;DHT22;8192;53.596;10.166;2023-10-09T10:43:44;11.70;99.90
16172;DHT22;8192;53.596;10.166;2023-10-09T10:46:22;11.50;99.90
16172;DHT22;8192;53.596;10.166;2023-10-09T10:49:20;11.40;99.90
16172;DHT22;8192;53.596;10.166;2023-10-09T10:51:48;11.40;99.90
16172;DHT22;8192;53.596;10.166;2023-10-09T10:54:26;11.50;99.90
16172;DHT22;8192;53.596;10.166;2023-10-09T10:57:29;11.40;99.90
16172;DHT22;8192;53.596;10.166;2023-10-09T10:59:56;11.40;99.90
16172;DHT22;8192;53.596;10.166;2023-10-09T11:02:45;11.30;99.90
16172;DHT22;8192;53.596;10.166;2023-10-09T11:05:13;11.40;99.90
16172;DHT22;8192;53.596;10.166;2023-10-09T11:07:51;11.40;99.90
16172;DHT22;8192;53.596;10.166;2023-10-09T11:10:22;11.40;99.90
16172;DHT22;8192;53.596;10.166;2023-10-09T11:12:54;11.40;99.90
16172;DHT22;8192;53.596;10.166;2023-10-09T11:15:53;11.40;99.90
16172;DHT22;8192;53.596;10.166;2023-10-09T11:18:42;11.40;99.90
16172;DHT22;8192;53.596;10.166;2023-10-09T11:21:13;11.50;99.90
16172;DHT22;8192;53.596;10.166;2023-10-09T11:23:59;11.60;99.90
16172;DHT22;8192;53.596;10.166;2023-10-09T11:26:48;11.50;99.90
16172;DHT22;8192;53.596;10.166;2023-10-09T11:29:21;11.50;99.90
16172;DHT22;8192;53.596;10.166;2023-10-09T11:31:58;11.40;99.90
16172;DHT22;8192;53.596;10.166;2023-10-09T11:34:27;11.50;99.90
16172;DHT22;8192;53.596;10.166;2023-10-09T11:36:58;11.50;99.90
16172;DHT22;8192;53.596;10.166;2023-10-09T11:39:25;11.40;99.90
16172;DHT22;8192;53.596;10.166;2023-10-09T11:42:01;11.40;99.90
16172;DHT22;8192;53.596;10.166;2023-10-09T11:44:40;11.40;99.90
16172;DHT22;8192;53.596;10.166;2023-10-09T11:47:10;11.50;99.90
16172;DHT22;8192;53.596;10.166;2023-10-09T11:49:52;11.50;99.90
16172;DHT22;8192;53.596;10.166;2023-10-09T11:52:55;11.50;99.90
16172;DHT22;8192;53.596;10.166;2023-10-09T11:55:22;11.60;99.90
16172;DHT22;8192;53.596;10.166;2023-10-09T11:57:51;11.70;99.90
16172;DHT22;8192;53.596;10.166;2023-10-09T12:00:18;11.80;99.90
16172;DHT22;8192;53.596;10.166;2023-10-09T12:02:55;12.10;99.90
16172;DHT22;8192;53.596;10.166;2023-10-09T12:05:23;12.30;99.90
16172;DHT22;8192;53.596;10.166;2023-10-09T12:07:53;12.50;99.90
16172;DHT22;8192;53.596;10.166;2023-10-09T12:10:22;12.70;99.90
16172;DHT22;8192;53.596;10.166;2023-10-09T12:12:51;12.80;99.90
16172;DHT22;8192;53.596;10.166;2023-10-09T12:15:18;13.00;99.90
16172;DHT22;8192;53.596;10.166;2023-10-09T12:17:46;13.00;99.90
16172;DHT22;8192;53.596;10.166;2023-10-09T12:20:15;13.00;99.90
16172;DHT22;8192;53.596;10.166;2023-10-09T12:22:57;12.90;99.90
16172;DHT22;8192;53.596;10.166;2023-10-09T12:25:25;12.90;99.90
16172;DHT22;8192;53.596;10.166;2023-10-09T12:27:52;12.80;99.90
16172;DHT22;8192;53.596;10.166;2023-10-09T12:30:23;12.80;99.90
16172;DHT22;8192;53.596;10.166;2023-10-09T12:32:53;12.60;99.90
16172;DHT22;8192;53.596;10.166;2023-10-09T12:35:20;12.40;99.90
16172;DHT22;8192;53.596;10.166;2023-10-09T12:37:49;12.40;99.90
16172;DHT22;8192;53.596;10.166;2023-10-09T12:40:18;12.30;99.90
16172;DHT22;8192;53.596;10.166;2023-10-09T12:42:51;12.40;99.90
16172;DHT22;8192;53.596;10.166;2023-10-09T12:45:21;12.40;99.90
16172;DHT22;8192;53.596;10.166;2023-10-09T12:47:52;12.50;99.90
16172;DHT22;8192;53.596;10.166;2023-10-09T12:50:21;12.40;99.90
16172;DHT22;8192;53.596;10.166;2023-10-09T12:52:55;12.40;99.90
16172;DHT22;8192;53.596;10.166;2023-10-09T12:55:23;12.30;99.90
16172;DHT22;8192;53.596;10.166;2023-10-09T12:58:01;12.30;99.90
16172;DHT22;8192;53.596;10.166;2023-10-09T13:00:33;12.30;99.90
16172;DHT22;8192;53.596;10.166;2023-10-09T13:03:04;12.30;99.90
16172;DHT22;8192;53.596;10.166;2023-10-09T13:05:43;12.30;99.90
16172;DHT22;8192;53.596;10.166;2023-10-09T13:08:19;12.40;99.90
16172;DHT22;8192;53.596;10.166;2023-10-09T13:10:49;12.60;99.90
16172;DHT22;8192;53.596;10.166;2023-10-09T13:13:27;12.70;99.90
16172;DHT22;8192;53.596;10.166;2023-10-09T13:16:09;12.60;99.90
16172;DHT22;8192;53.596;10.166;2023-10-09T13:18:39;12.50;99.90
16172;DHT22;8192;53.596;10.166;2023-10-09T13:21:07;12.60;99.90
16172;DHT22;8192;53.596;10.166;2023-10-09T13:23:34;12.80;99.90
16172;DHT22;8192;53.596;10.166;2023-10-09T13:26:07;12.90;99.90
16172;DHT22;8192;53.596;10.166;2023-10-09T13:28:45;13.10;99.90
16172;DHT22;8192;53.596;10.166;2023-10-09T13:31:12;13.10;99.90
16172;DHT22;8192;53.596;10.166;2023-10-09T13:33:40;13.00;99.90
16172;DHT22;8192;53.596;10.166;2023-10-09T13:36:08;13.20;99.90
16172;DHT22;8192;53.596;10.166;2023-10-09T13:38:43;13.10;99.90
16172;DHT22;8192;53.596;10.166;2023-10-09T13:41:12;13.20;99.90
16172;DHT22;8192;53.596;10.166;2023-10-09T13:43:40;13.30;99.90
16172;DHT22;8192;53.596;10.166;2023-10-09T13:46:08;13.20;99.90
16172;DHT22;8192;53.596;10.166;2023-10-09T13:48:37;13.30;99.90
16172;DHT22;8192;53.596;10.166;2023-10-09T13:51:07;13.10;99.90
16172;DHT22;8192;53.596;10.166;2023-10-09T13:53:40;12.90;99.90
16172;DHT22;8192;53.596;10.166;2023-10-09T13:56:12;12.80;99.90
16172;DHT22;8192;53.596;10.166;2023-10-09T13:58:45;12.90;99.90
16172;DHT22;8192;53.596;10.166;2023-10-09T14:01:12;12.80;99.90
16172;DHT22;8192;53.596;10.166;2023-10-09T14:03:47;12.80;99.90
16172;DHT22;8192;53.596;10.166;2023-10-09T14:06:17;12.80;99.90
16172;DHT22;8192;53.596;10.166;2023-10-09T14:08:56;12.80;99.90
16172;DHT22;8192;53.596;10.166;2023-10-09T14:11:24;13.00;99.90
16172;DHT22;8192;53.596;10.166;2023-10-09T14:13:52;13.00;99.90
16172;DHT22;8192;53.596;10.166;2023-10-09T14:16:19;13.10;99.90
16172;DHT22;8192;53.596;10.166;2023-10-09T14:18:54;13.10;99.90
16172;DHT22;8192;53.596;10.166;2023-10-09T14:21:23;13.10;99.90
16172;DHT22;8192;53.596;10.166;2023-10-09T14:23:51;13.00;99.90
16172;DHT22;8192;53.596;10.166;2023-10-09T14:26:26;13.10;99.90
16172;DHT22;8192;53.596;10.166;2023-10-09T14:28:53;13.10;99.90
16172;DHT22;8192;53.596;10.166;2023-10-09T14:31:23;13.00;99.90
16172;DHT22;8192;53.596;10.166;2023-10-09T14:33:54;12.90;99.90
16172;DHT22;8192;53.596;10.166;2023-10-09T14:36:21;13.00;99.90
16172;DHT22;8192;53.596;10.166;2023-10-09T14:38:49;13.10;99.90
16172;DHT22;8192;53.596;10.166;2023-10-09T14:41:19;13.20;99.90
16172;DHT22;8192;53.596;10.166;2023-10-09T14:43:50;13.20;99.90
16172;DHT22;8192;53.596;10.166;2023-10-09T14:46:18;13.20;99.90
16172;DHT22;8192;53.596;10.166;2023-10-09T14:48:51;13.10;99.90
16172;DHT22;8192;53.596;10.166;2023-10-09T14:51:19;13.00;99.90
16172;DHT22;8192;53.596;10.166;2023-10-09T14:53:55;13.00;99.90
16172;DHT22;8192;53.596;10.166;2023-10-09T14:56:25;12.90;99.90
16172;DHT22;8192;53.596;10.166;2023-10-09T14:58:58;12.90;99.90
16172;DHT22;8192;53.596;10.166;2023-10-09T15:01:26;12.80;99.90
16172;DHT22;8192;53.596;10.166;2023-10-09T15:03:55;12.80;99.90
16172;DHT22;8192;53.596;10.166;2023-10-09T15:06:23;12.70;99.90
16172;DHT22;8192;53.596;10.166;2023-10-09T15:08:53;12.70;99.90
16172;DHT22;8192;53.596;10.166;2023-10-09T15:11:25;12.70;99.90
16172;DHT22;8192;53.596;10.166;2023-10-09T15:13:54;12.70;99.90
16172;DHT22;8192;53.596;10.166;2023-10-09T15:16:24;12.80;99.90
16172;DHT22;8192;53.596;10.166;2023-10-09T15:18:55;12.90;99.90
16172;DHT22;8192;53.596;10.166;2023-10-09T15:21:23;13.00;99.90
16172;DHT22;8192;53.596;10.166;2023-10-09T15:23:52;13.00;99.90
16172;DHT22;8192;53.596;10.166;2023-10-09T15:26:20;13.10;99.90
16172;DHT22;8192;53.596;10.166;2023-10-09T15:28:48;13.00;99.90
16172;DHT22;8192;53.596;10.166;2023-10-09T15:31:16;13.00;99.90
16172;DHT22;8192;53.596;10.166;2023-10-09T15:33:45;12.90;99.90
16172;DHT22;8192;53.596;10.166;2023-10-09T15:36:14;12.90;99.90
16172;DHT22;8192;53.596;10.166;2023-10-09T15:38:42;13.10;99.90
16172;DHT22;8192;53.596;10.166;2023-10-09T15:41:09;13.10;99.90
16172;DHT22;8192;53.596;10.166;2023-10-09T15:43:37;13.10;99.90
16172;DHT22;8192;53.596;10.166;2023-10-09T15:46:11;13.10;99.90
16172;DHT22;8192;53.596;10.166;2023-10-09T15:48:40;13.20;99.90
16172;DHT22;8192;53.596;10.166;2023-10-09T15:51:10;13.20;99.90
16172;DHT22;8192;53.596;10.166;2023-10-09T15:53:41;13.20;99.90
16172;DHT22;8192;53.596;10.166;2023-10-09T15:56:09;13.20;99.90
16172;DHT22;8192;53.596;10.166;2023-10-09T15:58:38;13.20;99.90
16172;DHT22;8192;53.596;10.166;2023-10-09T16:01:09;13.20;99.90
16172;DHT22;8192;53.596;10.166;2023-10-09T16:03:38;13.30;99.90
16172;DHT22;8192;53.596;10.166;2023-10-09T16:06:06;13.20;99.90
16172;DHT22;8192;53.596;10.166;2023-10-09T16:08:36;13.20;99.90
16172;DHT22;8192;53.596;10.166;2023-10-09T16:11:04;13.20;99.90
16172;DHT22;8192;53.596;10.166;2023-10-09T16:13:31;13.10;99.90
16172;DHT22;8192;53.596;10.166;2023-10-09T16:15:58;13.10;99.90
16172;DHT22;8192;53.596;10.166;2023-10-09T16:18:26;13.10;99.90
16172;DHT22;8192;53.596;10.166;2023-10-09T16:20:54;13.10;99.90
16172;DHT22;8192;53.596;10.166;2023-10-09T16:23:21;13.10;99.90
16172;DHT22;8192;53.596;10.166;2023-10-09T16:25:50;13.10;99.90